createdAt,value
2023-03-08T00:00:13.099Z,38.20
2023-03-08T00:01:13.103Z,40.00
2023-03-08T00:02:13.096Z,39.30
2023-03-08T00:03:13.112Z,39.30
2023-03-08T00:04:13.201Z,39.00
2023-03-08T00:05:13.077Z,37.50
2023-03-08T00:06:13.063Z,39.40
2023-03-08T00:07:13.063Z,39.00
2023-03-08T00:08:13.197Z,38.00
2023-03-08T00:09:13.050Z,38.90
2023-03-08T00:10:13.042Z,38.90
2023-03-08T00:11:13.045Z,38.90
2023-03-08T00:12:13.029Z,38.90
2023-03-08T00:13:13.028Z,38.60
2023-03-08T00:14:13.027Z,38.60
2023-03-08T00:15:13.032Z,37.60
2023-03-08T00:16:13.105Z,38.30
2023-03-08T00:17:13.007Z,38.40
2023-03-08T00:18:12.994Z,38.70
2023-03-08T00:19:13.022Z,38.70
2023-03-08T00:20:12.983Z,38.60
2023-03-08T00:21:12.980Z,39.10
2023-03-08T00:22:12.978Z,38.50
2023-03-08T00:23:12.967Z,37.90
2023-03-08T00:24:12.972Z,38.40
2023-03-08T00:25:12.956Z,38.10
2023-03-08T00:26:12.988Z,38.40
2023-03-08T00:27:12.954Z,38.50
2023-03-08T00:28:12.943Z,37.80
2023-03-08T00:29:13.106Z,39.60
2023-03-08T00:30:12.945Z,38.50
2023-03-08T00:31:12.992Z,39.50
2023-03-08T00:32:12.932Z,39.20
2023-03-08T00:33:12.910Z,39.50
2023-03-08T00:34:12.924Z,39.20
2023-03-08T00:35:12.925Z,40.10
2023-03-08T00:36:12.896Z,38.80
2023-03-08T00:37:12.894Z,47.90
2023-03-08T00:38:12.879Z,48.90
2023-03-08T00:39:12.888Z,49.10
2023-03-08T00:40:12.875Z,49.00
2023-03-08T00:41:12.873Z,49.30
2023-03-08T00:42:12.870Z,48.80
2023-03-08T00:43:12.859Z,50.50
2023-03-08T00:44:12.874Z,49.90
2023-03-08T00:45:12.853Z,49.00
2023-03-08T00:46:12.845Z,49.20
2023-03-08T00:47:12.841Z,49.10
2023-03-08T00:48:12.823Z,47.90
2023-03-08T00:49:12.828Z,49.40
2023-03-08T00:50:12.822Z,50.30
2023-03-08T00:51:12.835Z,49.60
2023-03-08T00:52:12.806Z,48.40
2023-03-08T00:53:12.796Z,49.10
2023-03-08T00:54:12.798Z,48.30
2023-03-08T00:55:12.797Z,49.90
2023-03-08T00:56:12.789Z,48.30
2023-03-08T00:57:12.774Z,48.70
2023-03-08T00:58:12.770Z,49.60
2023-03-08T00:59:12.759Z,48.70
2023-03-08T01:00:12.757Z,47.90
2023-03-08T01:01:12.819Z,48.70
2023-03-08T01:02:12.767Z,47.90
2023-03-08T01:03:12.743Z,47.40
2023-03-08T01:04:12.824Z,47.40
2023-03-08T01:05:12.727Z,48.10
2023-03-08T01:06:12.733Z,48.00
2023-03-08T01:07:12.741Z,48.40
2023-03-08T01:08:12.718Z,49.00
2023-03-08T01:09:12.703Z,48.70
2023-03-08T01:10:12.703Z,48.70
2023-03-08T01:11:12.689Z,49.10
2023-03-08T01:12:12.686Z,48.90
2023-03-08T01:13:12.684Z,48.60
2023-03-08T01:14:12.674Z,49.60
2023-03-08T01:15:12.666Z,48.80
2023-03-08T01:16:12.666Z,49.80
2023-03-08T01:17:12.656Z,47.30
2023-03-08T01:18:12.654Z,49.00
2023-03-08T01:19:12.664Z,49.00
2023-03-08T01:20:12.639Z,49.50
2023-03-08T01:21:12.632Z,47.90
2023-03-08T01:22:12.632Z,48.80
2023-03-08T01:23:12.642Z,48.70
2023-03-08T01:24:12.616Z,49.00
2023-03-08T01:25:12.665Z,49.40
2023-03-08T01:26:12.607Z,46.70
2023-03-08T01:27:12.608Z,48.40
2023-03-08T01:28:12.593Z,47.00
2023-03-08T01:29:12.597Z,48.00
2023-03-08T01:30:12.579Z,48.20
2023-03-08T01:31:12.576Z,47.80
2023-03-08T01:32:12.633Z,49.00
2023-03-08T01:33:12.558Z,47.50
2023-03-08T01:34:12.558Z,49.50
2023-03-08T01:35:12.551Z,48.40
2023-03-08T01:36:12.564Z,48.70
2023-03-08T01:37:12.550Z,48.80
2023-03-08T01:38:12.528Z,49.40
2023-03-08T01:39:12.550Z,47.90
2023-03-08T01:40:12.526Z,48.80
2023-03-08T01:41:12.511Z,48.70
2023-03-08T01:42:12.507Z,47.70
2023-03-08T01:43:12.500Z,48.90
2023-03-08T01:44:12.493Z,48.90
2023-03-08T01:45:12.486Z,47.80
2023-03-08T01:46:12.485Z,48.40
2023-03-08T01:47:12.473Z,47.90
2023-03-08T01:48:12.474Z,47.60
2023-03-08T01:49:12.462Z,47.30
2023-03-08T01:50:12.454Z,47.70
2023-03-08T01:51:12.447Z,47.40
2023-03-08T01:52:12.462Z,46.80
2023-03-08T01:53:12.435Z,46.10
2023-03-08T01:54:12.430Z,47.10
2023-03-08T01:55:12.465Z,46.50
2023-03-08T01:56:12.420Z,47.10
2023-03-08T01:57:12.411Z,46.50
2023-03-08T01:58:12.404Z,45.80
2023-03-08T01:59:12.412Z,46.40
2023-03-08T02:00:12.396Z,37.80
2023-03-08T02:01:12.427Z,36.80
2023-03-08T02:02:12.383Z,37.10
2023-03-08T02:03:12.373Z,36.80
2023-03-08T02:04:12.365Z,37.40
2023-03-08T02:05:12.361Z,37.50
2023-03-08T02:06:12.360Z,37.50
2023-03-08T02:07:12.360Z,37.70
2023-03-08T02:08:12.346Z,37.60
2023-03-08T02:09:12.336Z,37.30
2023-03-08T02:10:12.340Z,37.50
2023-03-08T02:11:12.355Z,38.80
2023-03-08T02:12:12.322Z,38.10
2023-03-08T02:13:12.319Z,37.90
2023-03-08T02:14:12.312Z,38.10
2023-03-08T02:15:12.303Z,37.70
2023-03-08T02:16:12.304Z,38.10
2023-03-08T02:17:12.297Z,36.90
2023-03-08T02:18:12.290Z,37.60
2023-03-08T02:19:12.282Z,38.00
2023-03-08T02:20:12.283Z,37.80
2023-03-08T02:21:12.270Z,38.20
2023-03-08T02:22:12.267Z,37.90
2023-03-08T02:23:12.260Z,38.10
2023-03-08T02:24:12.255Z,38.30
2023-03-08T02:25:12.245Z,38.70
2023-03-08T02:26:12.242Z,37.50
2023-03-08T02:27:12.271Z,37.00
2023-03-08T02:28:12.226Z,38.60
2023-03-08T02:29:12.217Z,37.70
2023-03-08T02:30:12.223Z,38.00
2023-03-08T02:31:12.206Z,37.90
2023-03-08T02:32:12.251Z,37.40
2023-03-08T02:33:12.194Z,37.90
2023-03-08T02:34:12.194Z,39.20
2023-03-08T02:35:12.187Z,38.30
2023-03-08T02:36:12.212Z,39.20
2023-03-08T02:37:12.173Z,37.10
2023-03-08T02:38:12.181Z,37.90
2023-03-08T02:39:12.169Z,38.00
2023-03-08T02:40:12.162Z,38.20
2023-03-08T02:41:12.154Z,38.40
2023-03-08T02:42:12.155Z,37.70
2023-03-08T02:43:12.171Z,39.10
2023-03-08T02:44:12.130Z,38.30
2023-03-08T02:45:12.125Z,37.70
2023-03-08T02:46:12.121Z,38.50
2023-03-08T02:47:12.110Z,38.70
2023-03-08T02:48:12.102Z,38.50
2023-03-08T02:49:12.095Z,37.70
2023-03-08T02:50:12.094Z,37.40
2023-03-08T02:51:12.081Z,37.70
2023-03-08T02:52:12.080Z,38.00
2023-03-08T02:53:12.072Z,38.50
2023-03-08T02:54:12.065Z,37.70
2023-03-08T02:55:12.064Z,38.20
2023-03-08T02:56:12.053Z,39.30
2023-03-08T02:57:12.054Z,38.10
2023-03-08T02:58:12.045Z,38.20
2023-03-08T02:59:12.159Z,38.60
2023-03-08T03:00:12.032Z,39.90
2023-03-08T03:01:12.033Z,39.50
2023-03-08T03:02:12.022Z,40.00
2023-03-08T03:03:12.011Z,40.80
2023-03-08T03:04:12.006Z,40.10
2023-03-08T03:05:11.996Z,39.90
2023-03-08T03:06:12.003Z,39.80
2023-03-08T03:07:11.984Z,39.20
2023-03-08T03:08:11.980Z,38.90
2023-03-08T03:09:11.969Z,39.30
2023-03-08T03:10:11.966Z,38.20
2023-03-08T03:11:11.958Z,39.50
2023-03-08T03:12:11.961Z,39.50
2023-03-08T03:13:11.960Z,41.20
2023-03-08T03:14:11.939Z,40.50
2023-03-08T03:15:12.059Z,39.40
2023-03-08T03:16:12.001Z,38.60
2023-03-08T03:17:11.921Z,38.40
2023-03-08T03:18:11.931Z,37.90
2023-03-08T03:19:11.904Z,37.70
2023-03-08T03:20:11.899Z,37.80
2023-03-08T03:21:11.895Z,37.90
2023-03-08T03:22:11.886Z,37.70
2023-03-08T03:23:11.888Z,38.40
2023-03-08T03:24:11.873Z,39.20
2023-03-08T03:25:11.873Z,37.50
2023-03-08T03:26:11.865Z,38.20
2023-03-08T03:27:11.861Z,38.50
2023-03-08T03:28:11.869Z,37.80
2023-03-08T03:29:11.836Z,38.30
2023-03-08T03:30:11.853Z,37.80
2023-03-08T03:31:11.937Z,36.80
2023-03-08T03:32:11.903Z,36.00
2023-03-08T03:33:11.827Z,38.80
2023-03-08T03:34:11.810Z,37.20
2023-03-08T03:35:11.811Z,38.40
2023-03-08T03:36:11.794Z,38.30
2023-03-08T03:37:11.801Z,39.50
2023-03-08T03:38:11.780Z,38.40
2023-03-08T03:39:11.775Z,38.60
2023-03-08T03:40:11.785Z,39.10
2023-03-08T03:41:11.763Z,37.80
2023-03-08T03:42:11.761Z,38.30
2023-03-08T03:43:11.757Z,38.00
2023-03-08T03:44:11.749Z,37.90
2023-03-08T03:45:11.740Z,38.70
2023-03-08T03:46:11.781Z,38.40
2023-03-08T03:47:11.783Z,38.20
2023-03-08T03:48:11.738Z,37.50
2023-03-08T03:49:11.723Z,37.60
2023-03-08T03:50:11.717Z,38.00
2023-03-08T03:51:11.711Z,38.00
2023-03-08T03:52:11.705Z,38.10
2023-03-08T03:53:11.695Z,38.80
2023-03-08T03:54:11.695Z,38.40
2023-03-08T03:55:11.686Z,38.60
2023-03-08T03:56:11.679Z,37.80
2023-03-08T03:57:11.670Z,39.10
2023-03-08T03:58:11.686Z,37.80
2023-03-08T03:59:11.665Z,39.00
2023-03-08T04:00:11.667Z,38.30
2023-03-08T04:01:11.659Z,38.90
2023-03-08T04:02:11.648Z,38.00
2023-03-08T04:03:11.766Z,37.50
2023-03-08T04:04:11.655Z,38.30
2023-03-08T04:05:11.627Z,38.30
2023-03-08T04:06:11.638Z,38.20
2023-03-08T04:07:11.619Z,35.80
2023-03-08T04:08:11.614Z,36.60
2023-03-08T04:09:11.607Z,36.60
2023-03-08T04:10:11.637Z,36.70
2023-03-08T04:11:11.591Z,37.40
2023-03-08T04:12:11.592Z,38.00
2023-03-08T04:13:11.578Z,36.90
2023-03-08T04:14:11.619Z,37.40
2023-03-08T04:15:11.565Z,37.80
2023-03-08T04:16:11.813Z,38.00
2023-03-08T04:17:11.560Z,37.50
2023-03-08T04:18:11.559Z,37.60
2023-03-08T04:19:11.684Z,38.80
2023-03-08T04:20:11.541Z,37.10
2023-03-08T04:21:11.532Z,36.50
2023-03-08T04:22:11.532Z,37.60
2023-03-08T04:23:11.531Z,37.20
2023-03-08T04:24:11.524Z,38.30
2023-03-08T04:25:11.507Z,37.10
2023-03-08T04:26:11.514Z,36.50
2023-03-08T04:27:11.497Z,36.80
2023-03-08T04:28:11.495Z,36.40
2023-03-08T04:29:11.488Z,36.00
2023-03-08T04:30:11.486Z,37.30
2023-03-08T04:31:11.518Z,37.60
2023-03-08T04:32:11.513Z,37.00
2023-03-08T04:33:11.459Z,34.70
2023-03-08T04:34:11.453Z,36.70
2023-03-08T04:35:11.471Z,36.30
2023-03-08T04:36:11.444Z,36.60
2023-03-08T04:37:11.439Z,35.60
2023-03-08T04:38:11.430Z,35.30
2023-03-08T04:39:11.423Z,36.20
2023-03-08T04:40:11.423Z,36.10
2023-03-08T04:41:11.429Z,35.50
2023-03-08T04:42:11.412Z,36.60
2023-03-08T04:43:11.401Z,36.60
2023-03-08T04:44:11.401Z,36.10
2023-03-08T04:45:11.403Z,35.40
2023-03-08T04:46:11.461Z,36.70
2023-03-08T04:47:11.380Z,35.90
2023-03-08T04:48:11.371Z,36.10
2023-03-08T04:49:11.365Z,37.40
2023-03-08T04:50:11.365Z,35.90
2023-03-08T04:51:11.376Z,35.90
2023-03-08T04:52:11.352Z,36.40
2023-03-08T04:53:11.357Z,36.70
2023-03-08T04:54:11.340Z,36.10
2023-03-08T04:55:11.330Z,36.10
2023-03-08T04:56:11.324Z,34.40
2023-03-08T04:57:11.319Z,35.40
2023-03-08T04:58:11.330Z,35.20
2023-03-08T04:59:11.308Z,36.90
2023-03-08T05:00:11.300Z,36.10
2023-03-08T05:01:11.292Z,36.60
2023-03-08T05:02:11.340Z,36.30
2023-03-08T05:03:11.280Z,35.90
2023-03-08T05:04:11.290Z,37.00
2023-03-08T05:05:11.306Z,36.80
2023-03-08T05:06:11.288Z,36.60
2023-03-08T05:07:11.281Z,34.70
2023-03-08T05:08:11.251Z,36.30
2023-03-08T05:09:11.247Z,36.50
2023-03-08T05:10:11.245Z,35.20
2023-03-08T05:11:11.240Z,35.30
2023-03-08T05:12:11.234Z,34.80
2023-03-08T05:13:11.226Z,34.80
2023-03-08T05:14:11.215Z,35.80
2023-03-08T05:15:11.218Z,37.00
2023-03-08T05:16:11.267Z,35.70
2023-03-08T05:17:11.201Z,34.00
2023-03-08T05:18:11.198Z,35.20
2023-03-08T05:19:11.196Z,34.70
2023-03-08T05:20:11.188Z,35.50
2023-03-08T05:21:11.186Z,36.20
2023-03-08T05:22:11.169Z,36.00
2023-03-08T05:23:11.190Z,36.30
2023-03-08T05:24:11.156Z,35.30
2023-03-08T05:25:11.163Z,36.50
2023-03-08T05:26:11.147Z,35.30
2023-03-08T05:27:11.151Z,35.60
2023-03-08T05:28:11.134Z,36.50
2023-03-08T05:29:11.138Z,35.60
2023-03-08T05:30:11.123Z,35.30
2023-03-08T05:31:11.214Z,36.70
2023-03-08T05:32:11.124Z,35.50
2023-03-08T05:33:11.110Z,34.90
2023-03-08T05:34:11.142Z,34.80
2023-03-08T05:35:11.116Z,34.70
2023-03-08T05:36:11.097Z,35.00
2023-03-08T05:37:11.094Z,33.90
2023-03-08T05:38:11.081Z,34.10
2023-03-08T05:39:11.113Z,34.40
2023-03-08T05:40:11.064Z,34.40
2023-03-08T05:41:11.063Z,33.90
2023-03-08T05:42:11.052Z,34.50
2023-03-08T05:43:11.049Z,35.10
2023-03-08T05:44:11.036Z,34.50
2023-03-08T05:45:11.195Z,34.00
2023-03-08T05:46:11.050Z,34.10
2023-03-08T05:47:11.025Z,34.00
2023-03-08T05:48:11.016Z,34.90
2023-03-08T05:49:11.043Z,35.90
2023-03-08T05:50:11.010Z,35.10
2023-03-08T05:51:11.009Z,37.40
2023-03-08T05:52:10.992Z,36.10
2023-03-08T05:53:10.995Z,34.70
2023-03-08T05:54:10.976Z,35.20
2023-03-08T05:55:11.020Z,36.10
2023-03-08T05:56:10.983Z,37.00
2023-03-08T05:57:10.967Z,36.60
2023-03-08T05:58:10.951Z,36.40
2023-03-08T05:59:10.954Z,36.20
2023-03-08T06:00:10.970Z,35.30
2023-03-08T06:01:10.938Z,36.70
2023-03-08T06:02:10.984Z,35.50
2023-03-08T06:03:10.992Z,34.20
2023-03-08T06:04:10.919Z,33.90
2023-03-08T06:05:10.916Z,35.00
2023-03-08T06:06:10.901Z,35.50
2023-03-08T06:07:10.901Z,33.40
2023-03-08T06:08:10.897Z,33.90
2023-03-08T06:09:10.892Z,34.10
2023-03-08T06:10:10.883Z,33.50
2023-03-08T06:11:10.912Z,34.90
2023-03-08T06:12:10.873Z,33.20
2023-03-08T06:13:10.866Z,34.00
2023-03-08T06:14:13.085Z,33.10
2023-03-08T06:15:10.857Z,34.00
2023-03-08T06:16:10.848Z,34.30
2023-03-08T06:17:10.839Z,35.70
2023-03-08T06:18:10.831Z,35.50
2023-03-08T06:19:10.836Z,36.80
2023-03-08T06:20:10.829Z,35.70
2023-03-08T06:21:10.821Z,35.80
2023-03-08T06:22:10.807Z,36.20
2023-03-08T06:23:10.804Z,37.00
2023-03-08T06:24:10.794Z,34.50
2023-03-08T06:25:10.796Z,36.60
2023-03-08T06:26:10.796Z,35.90
2023-03-08T06:27:10.810Z,36.80
2023-03-08T06:28:10.780Z,37.30
2023-03-08T06:29:10.783Z,37.60
2023-03-08T06:30:10.766Z,37.10
2023-03-08T06:31:10.814Z,37.20
2023-03-08T06:32:10.790Z,37.60
2023-03-08T06:33:10.754Z,35.30
2023-03-08T06:34:10.749Z,34.80
2023-03-08T06:35:10.759Z,34.40
2023-03-08T06:36:10.739Z,33.80
2023-03-08T06:37:10.738Z,34.20
2023-03-08T06:38:10.722Z,35.20
2023-03-08T06:39:10.729Z,34.00
2023-03-08T06:40:10.715Z,34.60
2023-03-08T06:41:10.718Z,33.30
2023-03-08T06:42:10.696Z,33.30
2023-03-08T06:43:10.719Z,33.30
2023-03-08T06:44:10.690Z,34.10
2023-03-08T06:45:10.691Z,33.90
2023-03-08T06:46:10.751Z,32.50
2023-03-08T06:47:10.686Z,33.70
2023-03-08T06:48:10.673Z,33.90
2023-03-08T06:49:10.674Z,34.90
2023-03-08T06:50:10.658Z,33.90
2023-03-08T06:51:10.676Z,34.90
2023-03-08T06:52:10.646Z,33.90
2023-03-08T06:53:10.646Z,32.90
2023-03-08T06:54:10.636Z,33.30
2023-03-08T06:55:10.636Z,31.60
2023-03-08T06:56:10.628Z,33.00
2023-03-08T06:57:10.624Z,32.50
2023-03-08T06:58:10.610Z,33.20
2023-03-08T07:05:08.076Z,32.90
2023-03-08T07:06:08.043Z,32.80
2023-03-08T07:07:08.124Z,32.20
2023-03-08T07:08:08.028Z,32.50
2023-03-08T07:09:08.017Z,32.30
2023-03-08T07:10:08.017Z,31.40
2023-03-08T07:11:08.003Z,32.50
2023-03-08T07:12:08.251Z,32.30
2023-03-08T07:13:07.992Z,31.70
2023-03-08T07:14:07.993Z,31.80
2023-03-08T07:15:07.992Z,33.60
2023-03-08T07:16:08.056Z,32.30
2023-03-08T07:17:07.969Z,31.70
2023-03-08T07:18:07.966Z,31.90
2023-03-08T07:19:07.958Z,25.60
2023-03-08T07:20:07.966Z,25.90
2023-03-08T07:21:07.965Z,26.10
2023-03-08T07:22:07.952Z,34.60
2023-03-08T07:23:07.944Z,34.40
2023-03-08T07:24:07.939Z,35.60
2023-03-08T07:25:07.929Z,34.20
2023-03-08T07:26:07.950Z,34.30
2023-03-08T07:27:07.924Z,36.40
2023-03-08T07:28:07.928Z,33.70
2023-03-08T07:29:07.931Z,32.80
2023-03-08T07:30:07.915Z,32.40
2023-03-08T07:31:07.917Z,32.80
2023-03-08T07:32:08.053Z,34.70
2023-03-08T07:33:07.936Z,32.90
2023-03-08T07:34:07.892Z,32.40
2023-03-08T07:35:07.890Z,32.70
2023-03-08T07:36:07.894Z,32.60
2023-03-08T07:37:07.884Z,32.10
2023-03-08T07:38:07.865Z,33.70
2023-03-08T07:39:07.860Z,34.60
2023-03-08T07:40:07.855Z,34.00
2023-03-08T07:41:07.852Z,34.10
2023-03-08T07:42:07.849Z,32.90
2023-03-08T07:43:07.839Z,32.50
2023-03-08T07:44:08.299Z,34.70
2023-03-08T07:45:07.825Z,32.30
2023-03-08T07:46:07.870Z,31.60
2023-03-08T07:47:07.819Z,31.80
2023-03-08T07:48:07.826Z,31.40
2023-03-08T07:49:07.823Z,32.90
2023-03-08T07:50:07.810Z,31.80
2023-03-08T07:51:07.810Z,31.50
2023-03-08T07:52:07.804Z,31.00
2023-03-08T07:53:07.823Z,31.00
2023-03-08T07:54:07.798Z,31.20
2023-03-08T07:55:07.785Z,29.90
2023-03-08T07:56:07.785Z,30.40
2023-03-08T07:57:07.781Z,29.90
2023-03-08T07:58:07.799Z,30.00
2023-03-08T07:59:07.793Z,27.80
2023-03-08T08:00:07.770Z,27.30
2023-03-08T08:01:07.768Z,26.70
2023-03-08T08:02:07.772Z,22.90
2023-03-08T08:03:07.885Z,21.60
2023-03-08T08:04:07.783Z,20.60
2023-03-08T08:05:07.781Z,20.80
2023-03-08T08:06:07.751Z,20.80
2023-03-08T08:07:07.744Z,21.70
2023-03-08T08:08:07.742Z,21.70
2023-03-08T08:09:07.766Z,21.00
2023-03-08T08:10:07.733Z,20.50
2023-03-08T08:11:07.730Z,20.20
2023-03-08T08:12:07.722Z,19.40
2023-03-08T08:13:07.724Z,19.70
2023-03-08T08:14:07.735Z,19.80
2023-03-08T08:15:07.717Z,19.10
2023-03-08T08:16:07.777Z,19.50
2023-03-08T08:17:07.708Z,19.40
2023-03-08T08:18:07.707Z,18.60
2023-03-08T08:19:07.704Z,17.90
2023-03-08T08:20:07.703Z,17.20
2023-03-08T08:21:07.696Z,17.50
2023-03-08T08:22:07.693Z,16.70
2023-03-08T08:23:07.685Z,18.30
2023-03-08T08:24:07.692Z,17.40
2023-03-08T08:25:07.702Z,18.10
2023-03-08T08:26:07.675Z,18.30
2023-03-08T08:27:07.676Z,18.20
2023-03-08T08:28:07.674Z,18.10
2023-03-08T08:29:07.668Z,18.50
2023-03-08T08:30:07.681Z,18.50
2023-03-08T08:31:07.707Z,17.70
2023-03-08T08:32:07.703Z,17.40
2023-03-08T08:33:07.664Z,18.10
2023-03-08T08:34:07.657Z,17.10
2023-03-08T08:35:07.641Z,18.00
2023-03-08T08:36:07.762Z,17.20
2023-03-08T08:37:07.643Z,17.70
2023-03-08T08:38:07.642Z,17.30
2023-03-08T08:39:07.636Z,17.60
2023-03-08T08:40:07.642Z,18.50
2023-03-08T08:41:07.674Z,17.60
2023-03-08T08:42:07.637Z,18.40
2023-03-08T08:43:07.624Z,17.40
2023-03-08T08:44:07.630Z,17.60
2023-03-08T08:45:07.622Z,17.50
2023-03-08T08:46:07.666Z,18.10
2023-03-08T08:47:07.626Z,17.60
2023-03-08T08:48:07.628Z,18.70
2023-03-08T08:49:07.618Z,18.10
2023-03-08T08:50:07.615Z,17.60
2023-03-08T08:51:07.610Z,17.40
2023-03-08T08:52:07.605Z,16.90
2023-03-08T08:53:07.689Z,17.20
2023-03-08T08:54:07.645Z,16.80
2023-03-08T08:55:07.606Z,16.10
2023-03-08T08:56:14.316Z,16.10
2023-03-08T08:57:07.619Z,15.10
2023-03-08T08:58:07.598Z,15.10
2023-03-08T08:59:07.588Z,14.70
2023-03-08T09:00:07.592Z,14.50
2023-03-08T09:01:09.462Z,14.10
2023-03-08T09:02:07.671Z,13.30
2023-03-08T09:03:07.596Z,12.90
2023-03-08T09:04:07.605Z,12.30
2023-03-08T09:05:07.633Z,11.60
2023-03-08T09:06:07.592Z,11.30
2023-03-08T09:07:07.596Z,12.20
2023-03-08T09:08:07.598Z,11.50
2023-03-08T09:09:07.581Z,12.00
2023-03-08T09:10:07.585Z,12.10
2023-03-08T09:11:07.585Z,12.00
2023-03-08T09:12:07.588Z,12.50
2023-03-08T09:13:07.660Z,12.80
2023-03-08T09:14:07.581Z,12.30
2023-03-08T09:15:07.587Z,12.50
2023-03-08T09:16:07.602Z,12.50
2023-03-08T09:17:07.580Z,12.10
2023-03-08T09:18:07.583Z,12.40
2023-03-08T09:19:07.580Z,12.10
2023-03-08T09:20:07.587Z,12.00
2023-03-08T09:21:07.585Z,12.70
2023-03-08T09:22:07.586Z,12.50
2023-03-08T09:23:07.600Z,12.70
2023-03-08T09:24:07.584Z,13.00
2023-03-08T09:25:07.584Z,12.90
2023-03-08T09:26:07.584Z,12.10
2023-03-08T09:27:07.585Z,12.30
2023-03-08T09:28:07.585Z,12.90
2023-03-08T09:29:08.033Z,12.70
2023-03-08T09:30:07.584Z,12.60
2023-03-08T09:31:07.580Z,12.30
2023-03-08T09:32:07.700Z,12.60
2023-03-08T09:33:07.579Z,12.60
2023-03-08T09:34:07.582Z,12.50
2023-03-08T09:35:07.592Z,12.10
2023-03-08T09:36:07.584Z,12.10
2023-03-08T09:37:07.590Z,11.80
2023-03-08T09:38:07.584Z,11.60
2023-03-08T09:39:07.583Z,12.30
2023-03-08T09:40:07.577Z,11.90
2023-03-08T09:41:07.575Z,12.10
2023-03-08T09:42:07.577Z,12.40
2023-03-08T09:43:07.586Z,12.10
2023-03-08T09:44:07.583Z,12.30
2023-03-08T09:45:07.704Z,12.40
2023-03-08T09:46:07.673Z,12.00
2023-03-08T09:47:07.597Z,11.60
2023-03-08T09:48:07.723Z,12.10
2023-03-08T09:49:07.566Z,11.70
2023-03-08T09:50:07.574Z,11.90
2023-03-08T09:51:07.565Z,11.80
2023-03-08T09:52:07.563Z,11.90
2023-03-08T09:53:07.557Z,11.90
2023-03-08T09:54:07.568Z,12.60
2023-03-08T09:55:07.600Z,12.10
2023-03-08T09:56:07.566Z,12.40
2023-03-08T09:57:07.627Z,11.80
2023-03-08T09:58:07.568Z,12.10
2023-03-08T09:59:07.552Z,11.80
2023-03-08T10:00:07.549Z,11.70
2023-03-08T10:01:07.639Z,11.60
2023-03-08T10:02:07.549Z,11.80
2023-03-08T10:03:07.741Z,11.80
2023-03-08T10:04:07.590Z,12.30
2023-03-08T10:05:13.172Z,11.60
2023-03-08T10:06:07.544Z,12.00
2023-03-08T10:07:07.547Z,11.60
2023-03-08T10:08:07.536Z,11.90
2023-03-08T10:09:07.531Z,11.60
2023-03-08T10:10:07.534Z,10.90
2023-03-08T10:11:07.573Z,11.70
2023-03-08T10:12:13.019Z,12.10
2023-03-08T10:13:07.545Z,11.90
2023-03-08T10:14:07.525Z,12.20
2023-03-08T10:15:07.519Z,12.20
2023-03-08T10:16:07.523Z,11.40
2023-03-08T10:17:07.551Z,11.40
2023-03-08T10:18:07.523Z,12.00
2023-03-08T10:19:07.513Z,11.70
2023-03-08T10:20:07.513Z,11.20
2023-03-08T10:21:07.510Z,11.80
2023-03-08T10:22:07.512Z,11.30
2023-03-08T10:23:07.512Z,11.50
2023-03-08T10:24:07.527Z,11.50
2023-03-08T10:25:07.514Z,12.50
2023-03-08T10:26:07.504Z,11.60
2023-03-08T10:27:07.503Z,12.30
2023-03-08T10:28:07.514Z,11.90
2023-03-08T10:29:07.500Z,11.90
2023-03-08T10:30:07.499Z,12.30
2023-03-08T10:31:07.515Z,11.60
2023-03-08T10:32:07.546Z,11.50
2023-03-08T10:33:07.517Z,11.60
2023-03-08T10:34:07.496Z,11.50
2023-03-08T10:35:07.492Z,11.70
2023-03-08T10:36:07.520Z,11.10
2023-03-08T10:37:07.485Z,11.70
2023-03-08T10:38:07.492Z,11.60
2023-03-08T10:39:07.483Z,12.20
2023-03-08T10:40:07.494Z,12.10
2023-03-08T10:41:07.482Z,12.90
2023-03-08T10:42:07.481Z,12.80
2023-03-08T10:43:07.479Z,13.00
2023-03-08T10:44:07.489Z,13.10
2023-03-08T10:45:07.470Z,12.70
2023-03-08T10:46:07.509Z,13.00
2023-03-08T10:47:07.470Z,13.30
2023-03-08T10:48:07.475Z,13.30
2023-03-08T10:49:07.498Z,13.00
2023-03-08T10:50:07.469Z,13.10
2023-03-08T10:51:07.485Z,12.80
2023-03-08T10:52:07.470Z,13.00
2023-03-08T10:53:07.460Z,13.10
2023-03-08T10:54:07.505Z,12.80
2023-03-08T10:55:07.467Z,12.50
2023-03-08T10:56:07.513Z,12.90
2023-03-08T10:57:07.453Z,12.60
2023-03-08T10:58:07.455Z,12.50
2023-03-08T10:59:07.461Z,12.20
2023-03-08T11:00:07.465Z,12.60
2023-03-08T11:01:07.450Z,13.20
2023-03-08T11:02:07.447Z,12.70
2023-03-08T11:03:07.451Z,12.80
2023-03-08T11:04:07.444Z,11.40
2023-03-08T11:05:07.476Z,12.00
2023-03-08T11:06:07.442Z,12.40
2023-03-08T11:07:07.437Z,12.30
2023-03-08T11:08:07.440Z,12.70
2023-03-08T11:09:07.449Z,12.00
2023-03-08T11:10:07.436Z,11.60
2023-03-08T11:11:07.434Z,12.50
2023-03-08T11:12:07.507Z,12.70
2023-03-08T11:13:07.422Z,11.80
2023-03-08T11:14:07.438Z,11.90
2023-03-08T11:15:07.430Z,11.70
2023-03-08T11:16:07.485Z,11.30
2023-03-08T11:17:07.432Z,11.50
2023-03-08T11:18:07.423Z,11.70
2023-03-08T11:19:07.532Z,11.30
2023-03-08T11:20:07.414Z,11.30
2023-03-08T11:21:07.498Z,9.80
2023-03-08T11:22:07.413Z,10.30
2023-03-08T11:23:07.415Z,10.80
2023-03-08T11:24:07.484Z,10.40
2023-03-08T11:25:07.413Z,11.30
2023-03-08T11:26:07.399Z,11.20
2023-03-08T11:27:07.428Z,11.20
2023-03-08T11:28:07.482Z,10.90
2023-03-08T11:29:07.508Z,11.70
2023-03-08T11:30:07.452Z,11.20
2023-03-08T11:31:07.426Z,11.20
2023-03-08T11:32:07.443Z,10.90
2023-03-08T11:33:07.656Z,10.50
2023-03-08T11:34:07.438Z,11.00
2023-03-08T11:35:07.384Z,10.20
2023-03-08T11:36:07.434Z,9.90
2023-03-08T11:37:07.416Z,9.70
2023-03-08T11:38:07.382Z,10.90
2023-03-08T11:39:07.378Z,10.30
2023-03-08T11:40:07.366Z,11.00
2023-03-08T11:41:07.380Z,11.00
2023-03-08T11:42:07.364Z,10.80
2023-03-08T11:43:07.423Z,10.90
2023-03-08T11:44:07.370Z,11.00
2023-03-08T11:45:07.374Z,10.70
2023-03-08T11:46:07.385Z,10.50
2023-03-08T11:47:07.357Z,10.40
2023-03-08T11:48:07.357Z,10.30
2023-03-08T11:49:07.437Z,10.70
2023-03-08T11:50:07.363Z,11.00
2023-03-08T11:51:07.353Z,10.90
2023-03-08T11:52:07.346Z,11.10
2023-03-08T11:53:07.489Z,11.50
2023-03-08T11:54:07.345Z,11.30
2023-03-08T11:55:07.462Z,11.70
2023-03-08T11:56:07.340Z,11.40
2023-03-08T11:57:07.341Z,11.50
2023-03-08T11:58:07.334Z,11.60
2023-03-08T11:59:07.348Z,12.10
2023-03-08T12:00:07.329Z,11.50
2023-03-08T12:01:07.332Z,11.60
2023-03-08T12:02:07.330Z,11.40
2023-03-08T12:03:07.348Z,11.70
2023-03-08T12:04:07.417Z,12.30
2023-03-08T12:05:07.406Z,12.10
2023-03-08T12:06:10.014Z,11.50
2023-03-08T12:07:07.407Z,11.70
2023-03-08T12:08:07.366Z,11.30
2023-03-08T12:09:07.393Z,11.10
2023-03-08T12:10:07.381Z,10.80
2023-03-08T12:11:07.313Z,11.60
2023-03-08T12:12:07.312Z,11.70
2023-03-08T12:13:07.297Z,12.20
2023-03-08T12:14:07.290Z,12.00
2023-03-08T12:15:07.357Z,11.60
2023-03-08T12:16:07.320Z,11.60
2023-03-08T12:17:07.507Z,11.40
2023-03-08T12:18:07.296Z,11.70
2023-03-08T12:19:07.291Z,12.20
2023-03-08T12:20:07.285Z,12.30
2023-03-08T12:21:07.290Z,11.60
2023-03-08T12:22:07.275Z,11.50
2023-03-08T12:23:07.336Z,12.00
2023-03-08T12:24:07.349Z,11.60
2023-03-08T12:25:07.300Z,11.60
2023-03-08T12:26:07.278Z,11.40
2023-03-08T12:27:07.273Z,11.50
2023-03-08T12:28:07.297Z,11.70
2023-03-08T12:29:07.341Z,12.00
2023-03-08T12:30:07.330Z,10.80
2023-03-08T12:31:18.114Z,11.20
2023-03-08T12:32:07.516Z,11.60
2023-03-08T12:33:07.519Z,11.70
2023-03-08T12:34:07.256Z,11.20
2023-03-08T12:35:07.248Z,11.70
2023-03-08T12:36:07.411Z,12.10
2023-03-08T12:37:07.264Z,12.60
2023-03-08T12:38:07.273Z,12.60
2023-03-08T12:39:07.312Z,11.60
2023-03-08T12:40:07.322Z,11.40
2023-03-08T12:41:07.389Z,11.60
2023-03-08T12:42:07.230Z,11.80
2023-03-08T12:43:07.227Z,11.60
2023-03-08T12:44:07.229Z,11.40
2023-03-08T12:45:07.230Z,11.80
2023-03-08T12:46:07.289Z,11.50
2023-03-08T12:47:07.217Z,11.70
2023-03-08T12:48:07.209Z,10.90
2023-03-08T12:49:07.212Z,11.00
2023-03-08T12:50:07.206Z,11.20
2023-03-08T12:51:07.211Z,11.50
2023-03-08T12:52:07.202Z,11.20
2023-03-08T12:53:07.210Z,10.90
2023-03-08T12:54:07.218Z,11.30
2023-03-08T12:55:07.204Z,11.00
2023-03-08T12:56:07.198Z,11.00
2023-03-08T12:57:07.218Z,10.80
2023-03-08T12:58:07.191Z,11.00